Time;durP1;ratioP1;P1;durP2;ratioP2;P2;SDS_P1;SDS_P2;PMS_P1;PMS_P2;Temp;Humidity;BMP_temperature;BMP_pressure;BME280_temperature;BME280_humidity;BME280_pressure;Samples;Min_cycle;Max_cycle;Signal;HPM_P1;HPM_P2
2022/04/04 18:56:45;;;;;;;10.50;8.30;;;;;;;4.11;51.12;99049.14;81837;1370;545438;-78
2022/04/04 18:58:53;;;;;;;;;;;;;;;4.09;51.30;99042.16;84061;1340;22672;-76
2022/04/04 19:01:03;;;;;;;10.80;6.60;;;;;;;4.08;51.23;99040.60;83963;1343;22604;-75
2022/04/04 19:03:13;;;;;;;10.20;6.30;;;;;;;4.09;51.33;99030.59;84088;1340;25304;-78
2022/04/04 19:05:26;;;;;;;7.80;6.00;;;;;;;4.10;51.18;99036.93;84079;1338;22916;-78
2022/04/04 19:07:40;;;;;;;10.40;6.80;;;;;;;4.12;51.12;99027.52;84102;1324;22590;-78
2022/04/04 19:09:51;;;;;;;8.00;5.50;;;;;;;4.14;51.16;99028.34;83911;1335;316728;-76
2022/04/04 19:12:13;;;;;;;9.60;6.70;;;;;;;4.14;51.11;99020.73;84293;1340;26518;-77
2022/04/04 19:14:28;;;;;;;7.60;6.30;;;;;;;4.16;50.87;99018.10;84094;1340;22643;-77
2022/04/04 19:19:56;;;;;;;6.50;5.80;;;;;;;4.19;50.35;99003.32;84481;1337;25488;-78
2022/04/04 19:22:20;;;;;;;6.70;6.10;;;;;;;4.23;50.15;99005.59;85023;1313;22605;-79
2022/04/04 19:24:46;;;;;;;8.10;5.80;;;;;;;4.26;50.19;98996.88;84462;1332;23879;-77
2022/04/04 19:27:25;;;;;;;7.50;6.40;;;;;;;4.28;49.85;98997.82;84759;1313;22744;-79
2022/04/04 19:29:38;;;;;;;9.60;6.00;;;;;;;4.29;49.99;98994.00;84613;1333;22692;-78
2022/04/04 19:31:57;;;;;;;9.50;6.00;;;;;;;4.31;49.92;98984.26;84626;1330;22809;-77
2022/04/04 19:34:15;;;;;;;8.70;5.40;;;;;;;4.33;49.64;98982.64;84650;1331;24238;-77
2022/04/04 19:36:37;;;;;;;7.70;5.60;;;;;;;4.34;49.48;98974.33;84826;1313;22603;-79
2022/04/04 19:38:51;;;;;;;7.40;5.60;;;;;;;4.35;49.07;98974.78;84718;1330;22717;-76
2022/04/04 19:41:05;;;;;;;8.90;5.50;;;;;;;4.37;48.98;98969.70;84691;1330;22608;-78
2022/04/04 19:43:37;;;;;;;;;;;;;;;;;;;;;
2022/04/04 19:45:44;;;;;;;8.70;6.00;;;;;;;4.42;48.91;98964.21;84635;1327;22620;-77
2022/04/04 19:47:55;;;;;;;8.10;6.10;;;;;;;4.43;48.63;98962.60;84529;1333;23926;-76
2022/04/04 19:50:13;;;;;;;16.60;6.80;;;;;;;4.44;48.56;98951.36;84560;1335;22590;-76
2022/04/04 19:52:25;;;;;;;8.50;6.60;;;;;;;4.45;48.68;98949.75;84559;1328;22606;-77
2022/04/04 19:54:38;;;;;;;7.70;6.50;;;;;;;4.47;48.76;98939.34;84585;1333;22758;-76
2022/04/04 19:56:57;;;;;;;10.80;5.80;;;;;;;4.46;48.84;98933.83;84581;1323;22673;-81
2022/04/04 19:59:07;;;;;;;7.20;5.40;;;;;;;4.47;49.08;98927.77;84513;1331;25512;-77
2022/04/04 20:01:16;;;;;;;9.30;6.10;;;;;;;4.45;49.08;98927.98;84589;1333;22779;-80
2022/04/04 20:03:27;;;;;;;7.60;5.70;;;;;;;4.46;49.10;98925.22;84586;1334;22605;-80
2022/04/04 20:05:44;;;;;;;10.00;6.00;;;;;;;4.45;49.13;98924.57;84583;1328;22631;-80
2022/04/04 20:08:03;;;;;;;8.40;5.90;;;;;;;4.44;49.20;98926.14;84577;1330;23178;-77
2022/04/04 20:10:15;;;;;;;9.30;5.60;;;;;;;4.44;49.57;98919.59;84573;1330;22606;-78
2022/04/04 20:12:27;;;;;;;9.90;6.30;;;;;;;4.43;49.65;98919.42;84578;1332;25472;-76
2022/04/04 20:14:39;;;;;;;9.20;6.30;;;;;;;4.43;49.56;98915.30;84594;1332;25458;-79
2022/04/04 20:16:51;;;;;;;7.70;6.20;;;;;;;4.42;49.91;98912.22;84587;1334;23931;-80
2022/04/04 20:19:01;;;;;;;11.50;6.60;;;;;;;4.41;50.11;98904.64;84574;1332;24178;-75
2022/04/04 20:21:11;;;;;;;8.60;6.20;;;;;;;4.40;50.06;98901.95;84541;1332;22622;-76
2022/04/04 20:23:20;;;;;;;10.20;5.10;;;;;;;4.40;50.39;98898.84;84564;1330;22816;-76
2022/04/04 20:25:28;;;;;;;8.00;5.60;;;;;;;4.39;50.40;98893.16;84584;1332;22605;-76
2022/04/04 20:27:40;;;;;;;9.20;5.70;;;;;;;4.39;50.49;98887.30;84561;1332;22856;-79
2022/04/04 20:29:53;;;;;;;8.30;5.80;;;;;;;4.38;50.76;98880.76;84563;1331;23909;-80
2022/04/04 20:32:05;;;;;;;9.40;6.10;;;;;;;4.38;50.68;98876.80;84582;1330;25289;-81
2022/04/04 20:34:16;;;;;;;6.30;5.70;;;;;;;4.37;50.63;98873.37;84557;1335;22685;-77
2022/04/04 20:36:25;;;;;;;8.20;5.40;;;;;;;4.36;51.02;98859.92;84529;1333;23920;-77
2022/04/04 20:38:34;;;;;;;8.10;5.60;;;;;;;4.37;51.08;98862.52;84598;1332;22632;-76
2022/04/04 20:40:47;;;;;;;7.80;4.70;;;;;;;4.36;51.18;98859.58;84577;1330;22611;-76
2022/04/04 20:42:58;;;;;;;5.90;5.00;;;;;;;4.35;51.62;98853.61;84582;1332;22591;-76
2022/04/04 20:45:08;;;;;;;8.80;5.80;;;;;;;4.33;51.64;98852.11;84590;1327;22619;-80
2022/04/04 20:47:17;;;;;;;7.00;5.00;;;;;;;4.33;51.82;98850.23;84588;1329;25438;-79
2022/04/04 20:49:29;;;;;;;7.50;5.20;;;;;;;4.31;52.00;98846.34;84614;1323;22823;-78
2022/04/04 20:51:38;;;;;;;7.70;4.90;;;;;;;4.29;52.22;98847.08;84616;1329;26494;-76
2022/04/04 20:53:51;;;;;;;8.30;5.70;;;;;;;4.28;52.45;98835.23;84585;1331;22707;-81
2022/04/04 20:56:06;;;;;;;6.40;5.40;;;;;;;4.26;52.82;98835.11;84635;1330;22608;-83
2022/04/04 20:58:22;;;;;;;8.60;4.50;;;;;;;4.24;52.84;98830.20;84580;1333;22589;-84
2022/04/04 21:00:37;;;;;;;5.30;4.80;;;;;;;4.22;53.32;98823.86;84629;1329;22598;-80
2022/04/04 21:02:51;;;;;;;7.10;4.50;;;;;;;4.21;53.52;98820.65;84648;1330;22617;-79
2022/04/04 21:08:31;;;;;;;5.70;4.30;;;;;;;4.16;53.92;98818.75;84493;1332;22616;-78
2022/04/04 21:10:43;;;;;;;6.00;4.40;;;;;;;4.14;53.91;98815.39;84550;1332;23954;-77
2022/04/04 21:12:51;;;;;;;6.30;5.10;;;;;;;4.12;54.01;98815.45;84629;1330;22613;-79
2022/04/04 21:15:07;;;;;;;6.30;4.70;;;;;;;4.10;54.46;98811.38;84655;1330;22864;-80
2022/04/04 21:17:20;;;;;;;5.10;4.60;;;;;;;4.08;54.73;98806.46;84640;1330;23906;-82
2022/04/04 21:19:30;;;;;;;5.80;4.80;;;;;;;4.05;54.77;98806.54;84640;1330;22607;-81
2022/04/04 21:21:43;;;;;;;10.30;5.70;;;;;;;4.02;54.85;98805.97;84633;1330;26499;-81
2022/04/04 21:23:55;;;;;;;6.80;4.70;;;;;;;4.00;55.09;98798.48;84627;1330;22593;-81
2022/04/04 21:26:08;;;;;;;5.00;4.30;;;;;;;3.96;55.21;98790.84;84647;1329;22573;-80
2022/04/04 21:28:17;;;;;;;14.70;5.00;;;;;;;3.93;55.24;98788.89;84515;1332;25435;-81
2022/04/04 21:30:35;;;;;;;5.50;5.00;;;;;;;3.88;55.50;98785.94;84652;1333;22759;-85
2022/04/04 21:32:44;;;;;;;7.90;4.80;;;;;;;3.84;55.74;98778.31;84645;1330;22622;-88
2022/04/04 21:34:57;;;;;;;5.90;5.30;;;;;;;3.81;55.98;98787.59;84665;1329;22552;-79
2022/04/04 21:37:07;;;;;;;8.20;5.50;;;;;;;3.78;56.15;98775.29;84629;1328;22944;-82
2022/04/04 21:39:18;;;;;;;6.90;4.30;;;;;;;3.75;56.47;98771.22;84595;1330;22591;-79
2022/04/04 21:41:28;;;;;;;8.10;5.20;;;;;;;3.73;56.47;98769.42;84614;1327;23039;-80
2022/04/04 21:43:44;;;;;;;8.40;4.90;;;;;;;3.70;56.22;98760.40;84606;1330;22597;-80
2022/04/04 21:45:54;;;;;;;6.70;4.70;;;;;;;3.66;56.66;98751.73;84573;1332;22582;-81
2022/04/04 21:48:05;;;;;;;;;;;;;;;3.63;56.64;98745.97;84608;1332;24240;-81
2022/04/04 21:50:29;;;;;;;7.70;5.70;;;;;;;3.59;56.95;98746.96;84565;1327;22609;-79
2022/04/04 21:52:46;;;;;;;6.50;4.40;;;;;;;3.59;56.76;98738.36;84590;1322;24260;-81
2022/04/04 21:54:59;;;;;;;7.60;5.50;;;;;;;3.58;56.84;98737.17;84598;1332;22851;-81
2022/04/04 21:57:09;;;;;;;6.60;5.40;;;;;;;3.58;57.18;98729.27;84594;1332;25586;-80
2022/04/04 21:59:18;;;;;;;6.70;4.80;;;;;;;3.58;57.32;98722.69;84600;1327;22595;-83
2022/04/04 22:01:30;;;;;;;6.60;4.50;;;;;;;3.59;57.16;98716.96;84591;1325;22765;-83
2022/04/04 22:03:42;;;;;;;5.70;5.10;;;;;;;3.61;57.07;98718.13;84609;1334;22605;-81
2022/04/04 22:05:52;;;;;;;5.40;4.80;;;;;;;3.61;57.11;98707.92;84527;1335;22604;-82
2022/04/04 22:08:04;;;;;;;5.90;5.20;;;;;;;3.63;57.46;98706.48;84561;1332;22668;-82
2022/04/04 22:10:16;;;;;;;5.80;4.90;;;;;;;3.64;57.10;98705.77;84588;1327;22594;-83
2022/04/04 22:12:34;;;;;;;7.10;5.70;;;;;;;3.66;57.31;98704.52;84505;1332;22586;-83
2022/04/04 22:14:47;;;;;;;6.50;5.00;;;;;;;3.66;57.22;98702.08;84506;1333;22619;-80
2022/04/04 22:17:00;;;;;;;5.20;4.60;;;;;;;3.67;57.24;98702.55;84591;1332;22602;-81
2022/04/04 22:19:14;;;;;;;9.20;4.90;;;;;;;3.68;57.28;98700.28;84569;1324;24307;-83
2022/04/04 22:21:33;;;;;;;7.30;5.30;;;;;;;3.69;57.45;98694.55;84565;1331;22666;-83
2022/04/04 22:24:09;;;;;;;5.90;5.00;;;;;;;3.69;57.47;98695.73;84584;1331;22586;-83
2022/04/04 22:26:45;;;;;;;4.60;4.10;;;;;;;3.70;57.74;98690.02;84523;1333;24219;-82
2022/04/04 22:29:15;;;;;;;5.20;4.70;;;;;;;3.70;57.65;98695.02;84601;1322;22866;-83
2022/04/04 22:31:26;;;;;;;8.80;5.70;;;;;;;3.71;57.91;98697.25;84592;1331;24965;-82
2022/04/04 22:33:45;;;;;;;8.70;6.10;;;;;;;3.70;58.18;98696.06;84599;1332;22596;-82
2022/04/04 22:35:54;;;;;;;7.70;4.90;;;;;;;3.70;58.24;98697.10;84578;1330;22617;-83
2022/04/04 22:38:03;;;;;;;15.80;7.00;;;;;;;3.69;59.90;98685.05;84569;1328;22797;-82
2022/04/04 22:40:15;;;;;;;7.30;5.70;;;;;;;3.68;60.43;98692.70;83191;1332;1003652;-82
2022/04/04 22:42:27;;;;;;;8.20;5.40;;;;;;;3.66;60.19;98694.85;84578;1332;22803;-83
2022/04/04 22:44:36;;;;;;;6.00;5.30;;;;;;;3.66;61.65;98690.20;84583;1328;22658;-80
2022/04/04 22:46:45;;;;;;;8.10;4.80;;;;;;;3.64;62.47;98691.29;84633;1330;22584;-80
2022/04/04 22:48:54;;;;;;;9.60;6.60;;;;;;;3.60;62.28;98692.43;84480;1333;22611;-80
2022/04/04 22:51:04;;;;;;;8.70;6.90;;;;;;;3.58;63.18;98698.57;84582;1333;22630;-80
2022/04/04 22:53:14;;;;;;;6.60;5.90;;;;;;;3.54;64.16;98699.40;84615;1332;26495;-80
2022/04/04 22:55:25;;;;;;;7.40;6.60;;;;;;;3.50;64.47;98698.88;84601;1329;22654;-80
2022/04/04 22:57:34;;;;;;;9.00;6.90;;;;;;;3.44;64.78;98692.89;84630;1330;22610;-78
2022/04/04 22:59:45;;;;;;;7.60;6.80;;;;;;;3.36;65.59;98691.80;84636;1328;24216;-81
2022/04/04 23:01:55;;;;;;;7.00;6.30;;;;;;;3.27;66.17;98685.52;84615;1330;26574;-82
2022/04/04 23:04:04;;;;;;;7.20;6.40;;;;;;;3.20;66.53;98682.34;84653;1329;22553;-82
2022/04/04 23:06:13;;;;;;;11.00;6.00;;;;;;;3.13;66.82;98676.38;84627;1330;22590;-81
2022/04/04 23:08:23;;;;;;;12.50;6.70;;;;;;;3.09;67.06;98671.55;84620;1321;22768;-80
2022/04/04 23:10:32;;;;;;;7.10;6.10;;;;;;;3.03;67.70;98673.62;84650;1330;23955;-78
2022/04/04 23:12:44;;;;;;;11.60;5.90;;;;;;;2.99;68.09;98668.80;84613;1329;25283;-79
2022/04/04 23:14:53;;;;;;;10.50;7.00;;;;;;;2.91;68.56;98664.61;84620;1330;22848;-78
2022/04/04 23:17:02;;;;;;;8.00;6.90;;;;;;;2.83;68.07;98654.67;84607;1330;22581;-77
2022/04/04 23:19:11;;;;;;;13.10;7.70;;;;;;;2.79;68.63;98649.83;84596;1333;22602;-78
2022/04/04 23:21:20;;;;;;;10.30;7.00;;;;;;;2.77;68.67;98651.80;84595;1330;22905;-77
2022/04/04 23:23:29;;;;;;;11.10;7.20;;;;;;;2.75;68.83;98648.59;84441;1330;22581;-78
2022/04/04 23:25:39;;;;;;;10.70;6.30;;;;;;;2.74;69.06;98643.29;84602;1328;22657;-84
2022/04/04 23:27:48;;;;;;;9.30;6.90;;;;;;;2.73;69.48;98636.10;84603;1330;22836;-83
2022/04/04 23:29:57;;;;;;;8.90;6.80;;;;;;;2.72;69.99;98635.95;84657;1329;24218;-78
2022/04/04 23:32:07;;;;;;;7.10;6.40;;;;;;;2.72;69.75;98642.33;84599;1331;22588;-79
2022/04/04 23:34:14;;;;;;;;;;;;;;;2.74;70.15;98638.12;84622;1328;22749;-83
2022/04/04 23:36:23;;;;;;;9.30;7.20;;;;;;;2.73;70.51;98635.23;84628;1330;22586;-82
2022/04/04 23:38:32;;;;;;;10.40;7.60;;;;;;;2.72;71.05;98628.55;84612;1333;22591;-83
2022/04/04 23:40:41;;;;;;;10.20;7.70;;;;;;;2.69;71.31;98625.05;84513;1332;23962;-82
2022/04/04 23:42:52;;;;;;;7.80;6.80;;;;;;;2.65;71.34;98618.81;84631;1333;22627;-83
2022/04/04 23:45:02;;;;;;;8.70;7.40;;;;;;;2.65;71.30;98613.13;84611;1327;22851;-83
2022/04/04 23:47:11;;;;;;;8.40;7.50;;;;;;;2.66;71.41;98608.80;84529;1333;25279;-84
2022/04/04 23:49:21;;;;;;;8.30;7.20;;;;;;;2.67;71.45;98605.31;84629;1330;22682;-80
2022/04/04 23:51:30;;;;;;;8.50;7.50;;;;;;;2.68;71.59;98603.39;84614;1330;22628;-79
2022/04/04 23:53:40;;;;;;;9.10;7.50;;;;;;;2.68;71.46;98597.02;84615;1330;23094;-82
2022/04/04 23:55:52;;;;;;;8.60;7.70;;;;;;;2.69;72.45;98594.74;84609;1328;22844;-82
2022/04/04 23:58:01;;;;;;;9.60;8.50;;;;;;;2.67;72.51;98586.38;84596;1330;24242;-82
